Latest Weather Observations for Moruya Airport

IDN60901

Issued at 8:25 pm EST Friday 18 April 2014 (issued every 10 minutes, with the page automatically refreshed every 10 minutes)

About weather observations | Map of Canberra area stations | Latest observations for Canberra area | Other Formats
Station Details ID: 069148 Name: MORUYA AIRPORT AWS Lat: -35.90 Lon: 150.14 Height: 4.0 m
Data from the previous 72 hours. | See also: Recent months for locations in Aust Capital Territory
Date/Time
EST
Tmp

°C
App
Tmp
°C
Dew
Point
°C
Rel
Hum
%
Delta-T

°C
Wind Press
QNH
hPa
Press
MSL
hPa
Rain
since
9 am
mm
Dir
 
Spd
km/h
Gust
km/h
Spd
kts
Gust
kts
18/08:00pm 18.7 15.9 14.2 75 2.6 S 22 33 12 18 1013.0 - 0.0
18/07:30pm 14.2 13.8 12.4 89 1.0 W 6 7 3 4 1012.1 - 0.0
18/07:00pm 14.5 14.4 12.2 86 1.2 WSW 4 7 2 4 1012.0 - 0.0
18/06:30pm 15.1 15.3 11.7 80 1.8 WNW 2 9 1 5 1011.8 - 0.0
18/06:00pm 17.1 16.0 12.0 72 2.8 NNW 9 11 5 6 1011.3 1011.2 0.0
18/05:30pm 17.3 16.3 12.4 73 2.7 NNW 9 15 5 8 1011.2 - 0.0
18/05:00pm 19.1 18.6 12.8 67 3.5 N 7 9 4 5 1011.5 - 0.0
18/04:30pm 20.6 19.7 11.5 56 5.0 N 7 13 4 7 1011.3 - 0.0
18/04:00pm 21.5 19.2 10.3 49 6.1 NNE 13 17 7 9 1011.0 - 0.0
18/03:30pm 22.3 19.8 9.8 45 6.8 NE 13 17 7 9 1011.1 - 0.0
18/03:00pm 22.7 20.1 10.8 47 6.6 ENE 15 17 8 9 1011.0 1010.9 0.0
18/02:30pm 23.0 21.1 11.7 49 6.4 ENE 13 17 7 9 1011.1 - 0.0
18/02:00pm 22.6 19.9 10.4 46 6.7 NE 15 19 8 10 1011.1 - 0.0
18/01:30pm 22.9 20.8 12.5 52 5.9 ENE 15 17 8 9 1011.4 - 0.0
18/01:00pm 22.7 20.9 13.2 55 5.5 E 15 19 8 10 1011.9 - 0.0
18/12:30pm 21.6 19.6 11.6 53 5.6 E 13 15 7 8 1012.5 - 0.0
18/12:00pm 22.5 20.9 11.6 50 6.1 E 11 15 6 8 1013.1 1013.0 0.0
18/11:30am 22.0 20.4 11.4 51 5.9 ENE 11 13 6 7 1013.4 - 0.0
18/11:00am 21.4 20.8 13.6 61 4.5 E 9 13 5 7 1013.9 - 0.0
18/10:30am 21.2 20.9 12.6 58 4.9 E 6 11 3 6 1014.2 - 0.0
18/10:00am 21.1 20.8 12.8 59 4.7 NW 6 9 3 5 1014.4 - 0.0
18/09:30am 19.2 18.2 12.2 64 3.9 W 9 13 5 7 1015.0 - 0.0
18/09:00am 17.5 16.4 11.8 69 3.1 W 9 15 5 8 1015.2 1015.1 0.0
18/08:30am 15.5 14.5 12.3 81 1.7 W 9 13 5 7 1015.5 - 0.0
18/08:00am 13.4 12.8 12.3 93 0.6 W 7 11 4 6 1015.6 - 0.0
18/07:30am 11.6 11.3 11.3 98 0.2 W 4 9 2 5 1015.5 - 0.0
18/07:00am 9.9 9.5 9.6 98 0.1 W 2 7 1 4 1015.5 - 0.0
18/06:30am 9.2 8.2 8.9 98 0.1 W 4 7 2 4 1015.6 - 0.0
18/06:00am 9.6 7.8 9.3 98 0.1 W 9 15 5 8 1015.6 1015.5 0.0
18/05:30am 8.8 8.5 8.5 98 0.1 CALM 0 6 0 3 1015.7 - 0.0
18/05:00am 9.1 8.1 8.8 98 0.1 W 4 7 2 4 1015.8 - 0.0
18/04:30am 9.0 8.7 8.7 98 0.1 CALM 0 0 0 0 1016.0 - 0.0
18/04:00am 8.8 8.5 8.5 98 0.1 CALM 0 0 0 0 1016.1 - 0.0
18/03:30am 9.7 9.6 9.4 98 0.1 CALM 0 0 0 0 1016.2 - 0.0
18/03:00am 9.9 9.8 9.6 98 0.1 CALM 0 4 0 2 1016.5 1016.4 0.0
18/02:30am 10.2 10.2 9.9 98 0.2 CALM 0 0 0 0 1016.8 - 0.0
18/02:00am 11.3 10.9 11.0 98 0.2 W 4 7 2 4 1017.1 - 0.0
18/01:30am 11.1 10.2 10.8 98 0.2 W 6 7 3 4 1017.5 - 0.0
18/01:00am 11.2 10.1 10.7 97 0.3 W 7 9 4 5 1017.8 - 0.0
18/12:30am 11.8 10.8 10.9 94 0.5 W 7 9 4 5 1018.1 - 0.0
18/12:00am 12.5 11.2 11.1 91 0.7 WSW 9 11 5 6 1018.3 1018.2 0.0
 
Date/Time
EST
Tmp

°C
App
Tmp
°C
Dew
Point
°C
Rel
Hum
%
Delta-T

°C
Wind Press
QNH
hPa
Press
MSL
hPa
Rain
since
9 am
mm
Dir
 
Spd
km/h
Gust
km/h
Spd
kts
Gust
kts
17/11:30pm 13.0 11.8 11.6 91 0.7 W 9 13 5 7 1018.6 - 0.0
17/11:00pm 13.4 12.2 11.6 89 1.0 W 9 13 5 7 1019.0 - 0.0
17/10:30pm 13.9 13.0 11.4 85 1.3 W 7 11 4 6 1019.2 - 0.0
17/10:00pm 14.5 13.0 11.8 84 1.5 W 11 15 6 8 1019.4 - 0.0
17/09:30pm 14.5 13.0 11.8 84 1.5 W 11 17 6 9 1019.6 - 0.0
17/09:00pm 14.6 13.2 12.1 85 1.3 W 11 15 6 8 1019.5 1019.4 0.0
17/08:30pm 14.4 13.4 12.3 87 1.1 W 9 13 5 7 1019.6 - 0.0
17/08:00pm 14.5 13.5 12.4 87 1.1 W 9 13 5 7 1019.5 - 0.0
17/07:30pm 13.8 12.8 12.2 90 0.9 W 9 11 5 6 1019.3 - 0.0
17/07:00pm 14.0 13.4 12.2 89 1.0 W 7 9 4 5 1019.2 - 0.0
17/06:30pm 15.5 15.1 12.4 82 1.7 WSW 6 9 3 5 1019.2 - 0.0
17/06:00pm 17.3 16.7 12.2 72 2.8 SSW 7 11 4 6 1019.0 1018.9 0.0
17/05:30pm 18.8 16.7 12.5 67 3.5 S 15 19 8 10 1018.8 - 0.0
17/05:00pm 19.4 16.6 11.4 60 4.4 SSE 17 22 9 12 1018.7 - 0.0
17/04:30pm 20.2 16.9 10.9 55 5.1 SSE 19 24 10 13 1018.5 - 0.0
17/04:00pm 20.8 17.5 10.9 53 5.4 SSE 19 24 10 13 1018.6 - 0.0
17/03:30pm 21.1 18.1 10.6 51 5.7 SSE 17 24 9 13 1018.5 - 0.0
17/03:00pm 21.0 17.3 10.2 50 5.8 SSE 20 28 11 15 1018.5 1018.4 0.0
17/02:30pm 21.1 17.5 10.0 49 6.0 SSE 19 26 10 14 1018.7 - 0.0
17/02:00pm 21.1 17.4 10.0 49 6.0 SSE 20 28 11 15 1018.8 - 0.0
17/01:30pm 21.2 17.5 9.4 47 6.3 SSE 19 28 10 15 1018.8 - 0.0
17/01:00pm 21.5 18.3 10.0 48 6.2 SSE 17 24 9 13 1019.1 - 0.0
17/12:30pm 21.4 17.9 7.3 40 7.3 S 15 20 8 11 1019.4 - 0.0
17/12:00pm 21.5 18.5 9.1 45 6.6 S 15 20 8 11 1019.7 1019.6 0.0
17/11:30am 21.7 18.5 9.9 47 6.4 S 17 30 9 16 1020.2 - 0.0
17/11:00am 21.3 17.5 8.9 45 6.6 SSW 19 28 10 15 1020.3 - 0.0
17/10:30am 20.4 16.7 9.3 49 5.9 S 19 28 10 15 1020.5 - 0.0
17/10:00am 19.9 16.6 10.9 56 4.9 SSW 19 26 10 14 1020.6 - 0.0
17/09:30am 18.7 16.7 11.5 63 3.9 SW 13 17 7 9 1020.6 - 0.0
17/09:00am 17.2 15.1 11.0 67 3.3 SW 13 17 7 9 1020.6 1020.5 0.0
17/08:30am 15.3 13.8 10.5 73 2.5 WSW 9 15 5 8 1020.5 - 0.0
17/08:00am 13.9 12.8 10.7 81 1.7 WSW 7 13 4 7 1020.3 - 0.0
17/07:30am 12.3 11.1 10.4 88 1.0 W 7 9 4 5 1020.1 - 0.0
17/07:00am 11.2 10.1 10.1 93 0.6 WSW 6 9 3 5 1019.8 - 0.0
17/06:30am 10.9 8.9 10.0 94 0.5 W 11 15 6 8 1019.4 - 0.0
17/06:00am 10.9 9.2 9.8 93 0.6 W 9 13 5 7 1019.2 1019.1 0.0
17/05:30am 10.9 9.2 10.0 94 0.5 W 9 13 5 7 1018.9 - 0.0
17/05:00am 11.5 10.3 10.2 92 0.7 WSW 7 13 4 7 1018.9 - 0.0
17/04:30am 11.4 9.1 10.5 94 0.5 WSW 13 19 7 10 1018.6 - 0.0
17/04:00am 11.0 9.9 9.9 93 0.6 W 6 9 3 5 1018.5 - 0.0
17/03:30am 11.6 10.0 10.2 91 0.7 W 9 13 5 7 1018.5 - 0.0
17/03:00am 11.7 10.2 10.4 92 0.7 WSW 9 15 5 8 1018.5 1018.4 0.0
17/02:30am 11.8 10.6 10.2 90 0.8 W 7 11 4 6 1018.5 - 0.0
17/02:00am 12.6 10.4 10.7 88 1.0 WSW 13 17 7 9 1018.8 - 0.0
17/01:30am 12.1 10.6 10.5 90 0.8 WSW 9 13 5 7 1019.1 - 0.0
17/01:00am 12.6 11.1 10.5 87 1.1 W 9 13 5 7 1019.2 - 0.0
17/12:30am 12.6 11.0 10.3 86 1.2 WSW 9 13 5 7 1019.5 - 0.0
17/12:00am 13.5 11.6 10.5 82 1.6 W 11 17 6 9 1019.5 1019.4 0.0
 
Date/Time
EST
Tmp

°C
App
Tmp
°C
Dew
Point
°C
Rel
Hum
%
Delta-T

°C
Wind Press
QNH
hPa
Press
MSL
hPa
Rain
since
9 am
mm
Dir
 
Spd
km/h
Gust
km/h
Spd
kts
Gust
kts
16/11:30pm 13.7 11.8 10.5 81 1.7 W 11 15 6 8 1019.7 - 0.0
16/11:00pm 14.0 12.1 10.6 80 1.8 W 11 17 6 9 1019.7 - 0.0
16/10:30pm 14.0 12.5 10.6 80 1.8 W 9 13 5 7 1019.9 - 0.0
16/10:00pm 14.0 12.2 10.8 81 1.7 W 11 17 6 9 1020.1 - 0.0
16/09:30pm 13.9 12.2 11.1 83 1.5 WNW 11 17 6 9 1020.1 - 0.0
16/09:00pm 14.2 12.4 10.8 80 1.8 W 11 15 6 8 1020.1 1020.0 0.0
16/08:30pm 14.4 12.6 11.0 80 1.8 W 11 17 6 9 1019.9 - 0.0
16/08:00pm 14.2 12.6 11.4 83 1.5 WNW 11 15 6 8 1019.6 - 0.0
16/07:30pm 13.4 12.4 10.9 85 1.3 W 7 9 4 5 1019.4 - 0.0
16/07:00pm 13.8 12.8 11.0 83 1.5 W 7 9 4 5 1019.3 - 0.0
16/06:30pm 14.1 13.0 10.7 80 1.8 W 7 11 4 6 1019.2 - 0.0
16/06:00pm 15.8 14.7 10.8 72 2.7 WSW 7 9 4 5 1018.9 1018.8 0.0
16/05:30pm 18.1 16.2 10.5 61 4.1 S 11 15 6 8 1018.6 - 0.0
16/05:00pm 19.4 16.5 9.6 53 5.2 S 15 19 8 10 1018.4 - 0.0
16/04:30pm 20.2 17.7 9.7 51 5.6 SSE 13 20 7 11 1018.2 - 0.0
16/04:00pm 20.6 17.6 9.2 48 6.0 SSE 15 22 8 12 1018.1 - 0.0
16/03:30pm 20.7 17.6 9.0 47 6.2 SSE 15 22 8 12 1018.2 - 0.0
16/03:00pm 21.0 17.6 10.5 51 5.7 SSE 19 26 10 14 1018.4 1018.3 0.0
16/02:30pm 20.8 17.2 10.0 50 5.8 SE 19 28 10 15 1018.6 - 0.0
16/02:00pm 20.5 16.8 9.4 49 5.9 SSE 19 26 10 14 1018.6 - 0.0
16/01:30pm 21.1 17.5 10.0 49 6.0 SSE 19 22 10 12 1018.5 - 0.0
16/01:00pm 21.0 18.6 10.2 50 5.8 S 13 19 7 10 1018.6 - 0.0
16/12:30pm 21.7 19.0 10.2 48 6.3 SSW 15 26 8 14 1019.0 - 0.0
16/12:00pm 21.1 17.7 9.0 46 6.4 SW 17 24 9 13 1019.7 1019.6 0.0
16/11:30am 20.8 17.7 8.8 46 6.3 SW 15 20 8 11 1020.1 - 0.0
16/11:00am 20.0 15.9 7.7 45 6.3 SSW 19 24 10 13 1020.5 - 0.0
16/10:30am 20.0 15.9 8.7 48 5.9 SW 20 30 11 16 1020.7 - 0.0
16/10:00am 19.4 15.5 8.7 50 5.6 SSW 19 28 10 15 1021.0 - 0.0
16/09:30am 18.7 14.2 8.7 52 5.2 SW 22 32 12 17 1021.2 - 0.0
16/09:00am 17.2 14.7 9.6 61 4.0 W 13 17 7 9 1021.4 1021.3 0.0
16/08:30am 15.8 13.6 9.5 66 3.3 WSW 11 15 6 8 1021.4 - 0.0
16/08:00am 14.6 11.8 8.5 67 3.1 W 13 17 7 9 1021.3 - 0.0
16/07:30am 13.6 11.1 8.4 71 2.6 W 11 15 6 8 1021.1 - 0.0
16/07:00am 12.0 9.6 8.5 79 1.7 WSW 11 15 6 8 1020.8 - 0.0
16/06:30am 11.6 9.1 8.1 79 1.7 W 11 17 6 9 1020.6 - 0.0
16/06:00am 11.7 9.2 8.0 78 1.8 W 11 15 6 8 1020.3 1020.2 0.0
16/05:30am 11.9 9.8 8.2 78 1.8 W 9 13 5 7 1020.4 - 0.0
16/05:00am 11.9 9.4 8.4 79 1.7 W 11 13 6 7 1020.3 - 0.0
16/04:30am 12.2 10.1 8.3 77 1.9 W 9 13 5 7 1020.3 - 0.0
16/04:00am 12.5 10.0 8.4 76 2.0 W 11 17 6 9 1020.3 - 0.0
16/03:30am 12.6 9.8 8.7 77 1.9 W 13 20 7 11 1020.2 - 0.0
16/03:00am 12.1 10.1 8.6 79 1.7 W 9 13 5 7 1020.3 1020.2 0.0
16/02:30am 13.5 10.9 9.2 75 2.2 WSW 13 17 7 9 1020.6 - 0.0
16/02:00am 13.2 10.9 8.9 75 2.2 WSW 11 15 6 8 1020.9 - 0.0
16/01:30am 13.4 11.4 8.7 73 2.4 W 9 15 5 8 1021.3 - 0.0
16/01:00am 14.4 11.7 9.0 70 2.7 WSW 13 19 7 10 1021.7 - 0.0
16/12:30am 14.7 11.3 9.1 69 2.9 SW 17 22 9 12 1021.8 - 0.0
16/12:00am 14.6 11.6 9.2 70 2.7 SW 15 22 8 12 1021.8 1021.7 0.0
 
Date/Time
EST
Tmp

°C
App
Tmp
°C
Dew
Point
°C
Rel
Hum
%
Delta-T

°C
Wind Press
QNH
hPa
Press
MSL
hPa
Rain
since
9 am
mm
Dir
 
Spd
km/h
Gust
km/h
Spd
kts
Gust
kts
15/11:30pm 14.6 11.6 9.4 71 2.7 SW 15 20 8 11 1022.0 - 0.0
15/11:00pm 14.8 11.9 9.6 71 2.7 WSW 15 20 8 11 1022.2 - 0.0
15/10:30pm 14.9 12.4 9.7 71 2.7 WSW 13 17 7 9 1022.4 - 0.0
15/10:00pm 14.9 12.2 10.3 74 2.4 WSW 15 20 8 11 1022.4 - 0.0
15/09:30pm 15.1 12.5 10.7 75 2.3 WSW 15 24 8 13 1022.4 - 0.0
15/09:00pm 15.1 12.9 10.7 75 2.3 WSW 13 20 7 11 1022.4 1022.3 0.0
15/08:30pm 15.5 13.0 11.1 75 2.3 WSW 15 22 8 12 1022.2 - 0.0

Latest Capital City Observations: Canberra | Sydney | Melbourne | Brisbane | Adelaide | Perth | Hobart | Darwin

Other Formats:

Comma delimited format used in spreadsheet applications
http://www.bom.gov.au/fwo/IDN60903/IDN60903.95937.axf

JavaScript Object Notation format (JSON) in row-major order
http://www.bom.gov.au/fwo/IDN60903/IDN60903.95937.json